Time;durP1;ratioP1;P1;durP2;ratioP2;P2;SDS_P1;SDS_P2;PMS_P1;PMS_P2;Temp;Humidity;BMP_temperature;BMP_pressure;BME280_temperature;BME280_humidity;BME280_pressure;Samples;Min_cycle;Max_cycle;Signal;HPM_P1;HPM_P2
2023/08/10 00:00:29;;;;;;;0.77;0.60;;;17.00;99.90;;;;;;4121308;28;20038;-68
2023/08/10 00:02:30;;;;;;;1.40;1.10;;;17.00;99.90;;;;;;4128540;28;20384;-68
2023/08/10 00:04:30;;;;;;;1.92;1.10;;;17.00;99.90;;;;;;4131573;28;20052;-68
2023/08/10 00:06:31;;;;;;;2.72;1.27;;;17.00;99.90;;;;;;4126618;28;20574;-68
2023/08/10 00:08:32;;;;;;;1.60;0.85;;;17.00;99.90;;;;;;4127320;28;20081;-69
2023/08/10 00:10:32;;;;;;;0.90;0.80;;;16.90;99.90;;;;;;4121642;28;20125;-68
2023/08/10 00:12:33;;;;;;;1.17;0.80;;;16.90;99.90;;;;;;4126434;28;20045;-68
2023/08/10 00:14:33;;;;;;;2.78;1.00;;;16.90;99.90;;;;;;4128821;28;20038;-68
2023/08/10 00:16:34;;;;;;;2.80;1.10;;;16.90;99.90;;;;;;4123567;28;20356;-68
2023/08/10 00:18:35;;;;;;;2.03;0.90;;;16.80;99.90;;;;;;4127553;28;20117;-68
2023/08/10 00:20:36;;;;;;;2.67;0.90;;;16.80;99.90;;;;;;4125037;28;20035;-68
2023/08/10 00:22:37;;;;;;;1.42;0.95;;;16.80;99.90;;;;;;4125374;28;20091;-68
2023/08/10 00:24:38;;;;;;;1.30;1.00;;;16.80;99.90;;;;;;4129556;28;20966;-68
2023/08/10 00:26:38;;;;;;;3.33;1.23;;;16.80;99.90;;;;;;4122106;28;20066;-68
2023/08/10 00:28:39;;;;;;;2.88;1.23;;;16.80;99.90;;;;;;4128905;28;20141;-68
2023/08/10 00:30:40;;;;;;;2.08;1.10;;;16.80;99.90;;;;;;4123054;28;20439;-68
2023/08/10 00:32:41;;;;;;;0.82;0.73;;;16.80;99.90;;;;;;4131222;28;20022;-68
2023/08/10 00:34:42;;;;;;;1.38;0.95;;;16.80;99.90;;;;;;4127927;28;20041;-68
2023/08/10 00:36:43;;;;;;;1.92;0.98;;;16.80;99.90;;;;;;4125830;28;20034;-68
2023/08/10 00:38:43;;;;;;;1.65;0.98;;;16.80;99.90;;;;;;4122919;28;20100;-68
2023/08/10 00:40:44;;;;;;;2.55;1.13;;;16.90;99.90;;;;;;4126874;28;20070;-68
2023/08/10 00:42:44;;;;;;;2.45;0.95;;;16.90;99.90;;;;;;4126640;28;20088;-68
2023/08/10 00:44:45;;;;;;;1.33;0.80;;;16.90;99.90;;;;;;4128477;28;20034;-69
2023/08/10 00:46:46;;;;;;;2.15;0.90;;;16.90;99.90;;;;;;4135038;28;20400;-68
2023/08/10 00:48:47;;;;;;;4.13;1.30;;;16.90;99.90;;;;;;4126660;28;20210;-68
2023/08/10 00:50:49;;;;;;;1.13;0.80;;;16.80;99.90;;;;;;4125737;28;20038;-67
2023/08/10 00:52:50;;;;;;;2.08;1.02;;;16.80;99.90;;;;;;4122421;28;20046;-67
2023/08/10 00:54:50;;;;;;;1.52;0.90;;;16.80;99.90;;;;;;4125658;28;20096;-66
2023/08/10 00:56:51;;;;;;;0.70;0.57;;;16.90;99.90;;;;;;4126175;28;20041;-68
2023/08/10 00:58:51;;;;;;;1.65;0.77;;;16.90;99.90;;;;;;4140266;28;20629;-66
2023/08/10 01:00:52;;;;;;;0.90;0.75;;;16.90;99.90;;;;;;4126222;28;20037;-72
2023/08/10 01:02:53;;;;;;;3.22;1.02;;;16.90;99.90;;;;;;4131564;28;20453;-70
2023/08/10 01:04:54;;;;;;;1.20;0.80;;;16.90;99.90;;;;;;4128260;28;20049;-72
2023/08/10 01:06:57;;;;;;;1.08;0.85;;;16.90;99.90;;;;;;4110263;28;20039;-71
2023/08/10 01:09:03;;;;;;;1.33;0.82;;;16.90;99.90;;;;;;4128524;28;20557;-72
2023/08/10 01:11:21;;;;;;;1.02;0.73;;;16.80;99.90;;;;;;4121649;28;20034;-73
2023/08/10 01:14:06;;;;;;;0.95;0.65;;;16.90;99.90;;;;;;4120919;28;20475;-71
2023/08/10 01:16:09;;;;;;;3.22;1.10;;;16.80;99.90;;;;;;4117040;28;20046;-72
2023/08/10 01:18:18;;;;;;;1.60;1.00;;;16.80;99.90;;;;;;4133820;28;20037;-72
2023/08/10 01:20:23;;;;;;;0.90;0.80;;;16.80;99.90;;;;;;4124112;28;20085;-72
2023/08/10 01:22:50;;;;;;;0.85;0.80;;;16.80;99.90;;;;;;4121635;28;20030;-72
2023/08/10 01:25:06;;;;;;;1.50;0.90;;;16.80;99.90;;;;;;4127146;28;20426;-71
2023/08/10 01:27:09;;;;;;;1.67;0.98;;;16.80;99.90;;;;;;4130867;28;20042;-72
2023/08/10 01:29:10;;;;;;;2.25;0.90;;;16.80;99.90;;;;;;4125455;28;20054;-72
2023/08/10 01:31:11;;;;;;;1.83;0.80;;;16.80;99.90;;;;;;4128086;28;20033;-72
2023/08/10 01:33:13;;;;;;;2.45;0.98;;;16.80;99.90;;;;;;4124836;28;20034;-72
2023/08/10 01:35:13;;;;;;;0.82;0.80;;;16.80;99.90;;;;;;4122631;28;20031;-71
2023/08/10 01:37:14;;;;;;;1.27;0.90;;;16.80;99.90;;;;;;4128518;28;20431;-72
2023/08/10 01:39:15;;;;;;;1.70;0.98;;;16.80;99.90;;;;;;4128437;28;20049;-72
2023/08/10 01:41:15;;;;;;;4.15;1.17;;;16.80;99.90;;;;;;4125206;28;20065;-72
2023/08/10 01:43:16;;;;;;;1.60;0.93;;;16.80;99.90;;;;;;4126027;28;20092;-72
2023/08/10 01:45:17;;;;;;;1.90;1.10;;;16.80;99.90;;;;;;4125864;28;20487;-72
2023/08/10 01:47:36;;;;;;;1.20;1.00;;;16.80;99.90;;;;;;4130398;28;20027;-72
2023/08/10 01:49:38;;;;;;;1.65;1.17;;;16.80;99.90;;;;;;4127129;28;20057;-71
2023/08/10 01:51:42;;;;;;;1.85;0.90;;;16.80;99.90;;;;;;4124736;28;20038;-71
2023/08/10 01:53:45;;;;;;;1.38;1.00;;;16.80;99.90;;;;;;4125727;28;20450;-71
2023/08/10 01:55:46;;;;;;;2.50;1.00;;;16.90;99.90;;;;;;4125815;28;20471;-70
2023/08/10 01:57:47;;;;;;;2.30;1.10;;;16.90;99.90;;;;;;4125871;28;20046;-71
2023/08/10 01:59:48;;;;;;;0.73;0.73;;;16.90;99.90;;;;;;4142061;28;20040;-69
2023/08/10 02:01:49;;;;;;;3.35;1.00;;;16.90;99.90;;;;;;4132335;28;20107;-71
2023/08/10 02:03:49;;;;;;;1.63;0.93;;;16.90;99.90;;;;;;4124549;28;20490;-71
2023/08/10 02:05:50;;;;;;;2.38;1.25;;;16.90;99.90;;;;;;4132837;28;20581;-70
2023/08/10 02:07:51;;;;;;;1.73;1.10;;;16.90;99.90;;;;;;4123270;28;20483;-71
2023/08/10 02:09:51;;;;;;;1.05;0.73;;;16.90;99.90;;;;;;4127320;28;20030;-71
2023/08/10 02:11:52;;;;;;;2.15;1.02;;;17.00;99.90;;;;;;4123824;28;20054;-68
2023/08/10 02:13:53;;;;;;;0.85;0.82;;;16.90;99.90;;;;;;4122907;28;20105;-67
2023/08/10 02:15:53;;;;;;;0.80;0.75;;;16.90;99.90;;;;;;4124659;28;20392;-68
2023/08/10 02:17:55;;;;;;;1.33;0.73;;;17.00;99.90;;;;;;4140977;28;20030;-68
2023/08/10 02:19:56;;;;;;;1.33;1.08;;;17.00;99.90;;;;;;4129847;28;20041;-68
2023/08/10 02:21:57;;;;;;;1.45;1.00;;;17.00;99.90;;;;;;4121287;28;20058;-71
2023/08/10 02:23:58;;;;;;;1.20;1.10;;;17.00;99.90;;;;;;4124162;28;20081;-71
2023/08/10 02:25:58;;;;;;;2.50;1.08;;;17.00;99.90;;;;;;4107104;28;20554;-71
2023/08/10 02:27:59;;;;;;;2.90;0.85;;;17.00;99.90;;;;;;4125531;28;20491;-71
2023/08/10 02:30:00;;;;;;;2.47;0.95;;;17.00;99.90;;;;;;4124705;28;20395;-71
2023/08/10 02:32:00;;;;;;;2.10;0.90;;;17.00;99.90;;;;;;4123337;28;20031;-71
2023/08/10 02:34:01;;;;;;;1.65;0.90;;;17.10;99.90;;;;;;4121632;28;20081;-70
2023/08/10 02:36:02;;;;;;;2.55;1.35;;;17.00;99.90;;;;;;4129421;28;20108;-71
2023/08/10 02:38:02;;;;;;;1.88;1.02;;;17.00;99.90;;;;;;4133670;28;20037;-71
2023/08/10 02:40:04;;;;;;;1.65;1.10;;;17.10;99.90;;;;;;4131225;28;20479;-71
2023/08/10 02:42:05;;;;;;;1.10;0.93;;;17.00;99.90;;;;;;4140889;28;20410;-71
2023/08/10 02:44:06;;;;;;;2.45;1.33;;;17.00;99.90;;;;;;4127191;28;20110;-71
2023/08/10 02:46:06;;;;;;;1.05;0.80;;;17.00;99.90;;;;;;4124846;28;20672;-71
2023/08/10 02:48:07;;;;;;;1.23;1.08;;;17.00;99.90;;;;;;4125605;28;20530;-72
2023/08/10 02:50:11;;;;;;;1.10;0.90;;;17.00;99.90;;;;;;4127981;28;20038;-71
2023/08/10 02:52:12;;;;;;;2.08;1.00;;;17.00;99.90;;;;;;4131733;28;20030;-71
2023/08/10 02:54:12;;;;;;;1.45;1.00;;;17.00;99.90;;;;;;4128224;28;20403;-71
2023/08/10 02:56:13;;;;;;;1.33;1.02;;;17.00;99.90;;;;;;4128824;28;20026;-71
2023/08/10 02:58:13;;;;;;;1.40;1.08;;;17.00;99.90;;;;;;4128597;28;20034;-73
2023/08/10 03:00:14;;;;;;;1.77;1.20;;;17.00;99.90;;;;;;4126727;28;20534;-71
2023/08/10 03:02:18;;;;;;;1.20;1.10;;;17.00;99.90;;;;;;4133985;28;20060;-71
2023/08/10 03:04:19;;;;;;;2.15;1.08;;;16.90;99.90;;;;;;4130138;28;20484;-71
2023/08/10 03:06:20;;;;;;;1.10;1.00;;;16.90;99.90;;;;;;4128891;28;20034;-71
2023/08/10 03:08:20;;;;;;;1.20;1.10;;;16.90;99.90;;;;;;4129815;28;20039;-71
2023/08/10 03:10:21;;;;;;;2.58;1.27;;;16.90;99.90;;;;;;4133449;28;20033;-71
2023/08/10 03:12:22;;;;;;;1.33;1.10;;;16.90;99.90;;;;;;4130734;28;20543;-71
2023/08/10 03:14:22;;;;;;;1.38;1.10;;;16.90;99.90;;;;;;4128226;28;20041;-71
2023/08/10 03:16:23;;;;;;;2.75;1.00;;;16.90;99.90;;;;;;4124636;28;20084;-71
2023/08/10 03:18:24;;;;;;;3.95;1.33;;;16.90;99.90;;;;;;4132023;28;20034;-71
2023/08/10 03:20:25;;;;;;;1.42;1.10;;;16.90;99.90;;;;;;4129602;28;20037;-71
2023/08/10 03:22:27;;;;;;;1.23;0.90;;;17.00;99.90;;;;;;4137895;28;20034;-71
2023/08/10 03:24:28;;;;;;;1.35;1.20;;;17.00;99.90;;;;;;4128768;28;20084;-71
2023/08/10 03:26:28;;;;;;;1.52;1.10;;;17.00;99.90;;;;;;4137850;28;20121;-71
2023/08/10 03:28:29;;;;;;;1.00;0.90;;;17.00;99.90;;;;;;4127382;28;20515;-71
2023/08/10 03:30:30;;;;;;;2.63;1.10;;;17.00;99.90;;;;;;4125840;28;20066;-71
2023/08/10 03:32:30;;;;;;;2.17;1.30;;;17.00;99.90;;;;;;4130174;28;20042;-68
2023/08/10 03:34:31;;;;;;;1.45;0.88;;;16.90;99.90;;;;;;4135358;28;20113;-68
2023/08/10 03:36:31;;;;;;;2.13;1.40;;;17.00;99.90;;;;;;4134361;28;20041;-68
2023/08/10 03:38:32;;;;;;;1.27;0.90;;;17.00;99.90;;;;;;4129582;28;20073;-68
2023/08/10 03:40:33;;;;;;;0.95;0.77;;;16.90;99.90;;;;;;4126735;28;20042;-67
2023/08/10 03:42:33;;;;;;;1.67;1.00;;;17.00;99.90;;;;;;4127872;28;20050;-71
2023/08/10 03:44:34;;;;;;;1.88;1.60;;;16.90;99.90;;;;;;4127457;28;20048;-71
2023/08/10 03:46:34;;;;;;;5.15;1.20;;;17.00;99.90;;;;;;4125944;28;20567;-71
2023/08/10 03:48:35;;;;;;;3.05;1.42;;;16.90;99.90;;;;;;4075473;28;20438;-71
2023/08/10 03:50:36;;;;;;;2.97;1.35;;;16.90;99.90;;;;;;4127548;28;20062;-71
2023/08/10 03:52:37;;;;;;;3.38;1.33;;;16.90;99.90;;;;;;4137693;28;20033;-66
2023/08/10 03:54:37;;;;;;;2.05;1.33;;;16.90;99.90;;;;;;4130969;28;20399;-66
2023/08/10 03:56:38;;;;;;;1.60;1.30;;;16.90;99.90;;;;;;4125239;28;20153;-66
2023/08/10 03:58:38;;;;;;;1.83;1.30;;;16.90;99.90;;;;;;4099281;28;20045;-66
2023/08/10 04:00:44;;;;;;;2.08;1.42;;;16.80;99.90;;;;;;4127419;28;20042;-66
2023/08/10 04:02:45;;;;;;;1.77;1.40;;;16.80;99.90;;;;;;4123972;28;20042;-66
2023/08/10 04:04:46;;;;;;;2.35;1.20;;;16.80;99.90;;;;;;4126371;28;20030;-66
2023/08/10 04:06:46;;;;;;;2.38;1.63;;;16.80;99.90;;;;;;4127262;28;20038;-65
2023/08/10 04:08:47;;;;;;;2.13;1.35;;;16.80;99.90;;;;;;4139082;28;20062;-66
2023/08/10 04:10:47;;;;;;;1.63;1.15;;;16.80;99.90;;;;;;4124011;28;20575;-66
2023/08/10 04:12:48;;;;;;;2.67;1.63;;;16.70;99.90;;;;;;4127577;28;20057;-66
2023/08/10 04:14:48;;;;;;;2.92;1.38;;;16.80;99.90;;;;;;4126534;28;20030;-66
2023/08/10 04:16:49;;;;;;;2.08;1.38;;;16.80;99.90;;;;;;4128599;28;20030;-66
2023/08/10 04:18:50;;;;;;;2.38;1.35;;;16.70;99.90;;;;;;4125533;28;20042;-67
2023/08/10 04:20:51;;;;;;;1.65;1.30;;;16.80;99.90;;;;;;4127940;28;20031;-68
2023/08/10 04:22:52;;;;;;;1.33;1.08;;;16.80;99.90;;;;;;4120948;28;20031;-66
2023/08/10 04:24:53;;;;;;;2.92;1.42;;;16.80;99.90;;;;;;4121924;28;20030;-66
2023/08/10 04:26:53;;;;;;;3.40;1.60;;;16.70;99.90;;;;;;4128000;28;20030;-67
2023/08/10 04:28:54;;;;;;;4.30;1.98;;;16.70;99.90;;;;;;4131713;28;20566;-66
2023/08/10 04:30:54;;;;;;;2.03;1.60;;;16.80;99.90;;;;;;4127970;28;20474;-67
2023/08/10 04:32:56;;;;;;;4.45;2.30;;;16.80;99.90;;;;;;4126245;28;20034;-66
2023/08/10 04:34:57;;;;;;;5.30;1.88;;;16.80;99.90;;;;;;4127262;28;20399;-68
2023/08/10 04:36:58;;;;;;;2.60;1.58;;;16.80;99.90;;;;;;4127220;28;20038;-67
2023/08/10 04:38:59;;;;;;;2.28;1.48;;;16.80;99.90;;;;;;4125965;28;20034;-66
2023/08/10 04:41:00;;;;;;;2.25;1.63;;;16.80;99.90;;;;;;4126162;28;20089;-67
2023/08/10 04:43:01;;;;;;;2.33;1.63;;;16.80;99.90;;;;;;4142377;28;20030;-66
2023/08/10 04:45:01;;;;;;;2.17;1.58;;;16.70;99.90;;;;;;4136663;28;20045;-66
2023/08/10 04:47:02;;;;;;;1.30;1.20;;;16.70;99.90;;;;;;4139187;28;20033;-66
2023/08/10 04:49:03;;;;;;;3.58;2.17;;;16.70;99.90;;;;;;4124009;28;20150;-66
2023/08/10 04:51:04;;;;;;;2.45;1.77;;;16.70;99.90;;;;;;4130755;28;20042;-68
2023/08/10 04:53:05;;;;;;;2.47;1.90;;;16.70;99.90;;;;;;4124404;28;20053;-66
2023/08/10 04:55:05;;;;;;;2.50;1.88;;;16.70;99.90;;;;;;4128253;28;20443;-66
2023/08/10 04:57:07;;;;;;;2.97;1.73;;;16.70;99.90;;;;;;4124803;28;20419;-67
2023/08/10 04:59:07;;;;;;;3.35;1.77;;;16.70;99.90;;;;;;4121777;28;20034;-65
2023/08/10 05:01:09;;;;;;;2.90;1.70;;;16.70;99.90;;;;;;4127397;28;20042;-64
2023/08/10 05:03:10;;;;;;;2.65;1.77;;;16.70;99.90;;;;;;4126678;28;20061;-65
2023/08/10 05:05:11;;;;;;;3.00;1.92;;;16.70;99.90;;;;;;4141872;28;20084;-66
2023/08/10 05:07:11;;;;;;;2.53;1.80;;;16.70;99.90;;;;;;4110361;28;20035;-64
2023/08/10 05:09:12;;;;;;;2.55;1.90;;;16.70;99.90;;;;;;4127148;28;20093;-64
2023/08/10 05:11:13;;;;;;;2.65;1.63;;;16.70;99.90;;;;;;4109235;28;20065;-64
2023/08/10 05:13:14;;;;;;;2.40;1.70;;;16.70;99.90;;;;;;4129587;28;20038;-66
2023/08/10 05:15:15;;;;;;;3.80;1.83;;;16.70;99.90;;;;;;4122213;28;20450;-65
2023/08/10 05:17:15;;;;;;;5.95;2.58;;;16.70;99.90;;;;;;4125942;28;20089;-65
2023/08/10 05:19:16;;;;;;;3.90;2.25;;;16.70;99.90;;;;;;4131734;28;20038;-65
2023/08/10 05:21:17;;;;;;;3.20;2.25;;;16.70;99.90;;;;;;4121946;28;20628;-66
2023/08/10 05:23:18;;;;;;;2.83;2.05;;;16.70;99.90;;;;;;4124379;28;20038;-64
2023/08/10 05:25:18;;;;;;;3.55;2.17;;;16.70;99.90;;;;;;4123440;28;21128;-64
2023/08/10 05:27:19;;;;;;;2.80;1.85;;;16.70;99.90;;;;;;4127239;28;20622;-64
2023/08/10 05:29:20;;;;;;;2.75;1.85;;;16.70;99.90;;;;;;4129293;28;20403;-66
2023/08/10 05:31:21;;;;;;;2.92;1.70;;;16.70;99.90;;;;;;4121362;28;20038;-66
2023/08/10 05:33:22;;;;;;;3.60;2.50;;;16.80;99.90;;;;;;4121370;28;20093;-64
2023/08/10 05:35:23;;;;;;;2.72;1.90;;;16.80;99.90;;;;;;4128390;28;20034;-66
2023/08/10 05:37:23;;;;;;;4.20;2.20;;;16.80;99.90;;;;;;4123969;28;20396;-64
2023/08/10 05:39:24;;;;;;;3.72;2.38;;;16.80;99.90;;;;;;4120668;28;20034;-65
2023/08/10 05:41:24;;;;;;;5.82;2.65;;;16.80;99.90;;;;;;4125392;28;20570;-64
2023/08/10 05:43:25;;;;;;;3.75;2.47;;;16.80;99.90;;;;;;4121155;28;20117;-65
2023/08/10 05:45:26;;;;;;;4.63;2.78;;;16.80;99.90;;;;;;4126715;28;20050;-64
2023/08/10 05:47:26;;;;;;;3.28;2.60;;;16.80;99.90;;;;;;4124202;28;20046;-65
2023/08/10 05:49:27;;;;;;;4.35;2.78;;;16.80;99.90;;;;;;4125170;28;20396;-64
2023/08/10 05:51:28;;;;;;;3.20;2.58;;;16.80;99.90;;;;;;4125555;28;20042;-65
2023/08/10 05:53:28;;;;;;;5.07;2.28;;;16.90;99.90;;;;;;4123807;28;20547;-65
2023/08/10 05:55:29;;;;;;;5.68;2.85;;;16.90;99.90;;;;;;4125628;28;20503;-65
2023/08/10 05:57:30;;;;;;;4.78;2.95;;;16.90;99.90;;;;;;4134612;28;20092;-65
2023/08/10 05:59:31;;;;;;;5.00;2.80;;;16.80;99.90;;;;;;4121197;28;20039;-64
2023/08/10 06:01:32;;;;;;;4.10;2.75;;;16.80;99.90;;;;;;4125670;28;20125;-64
2023/08/10 06:03:35;;;;;;;5.70;2.63;;;16.90;99.90;;;;;;4126265;28;20077;-65
2023/08/10 06:05:36;;;;;;;3.80;2.50;;;16.80;99.90;;;;;;4124272;28;20040;-64
2023/08/10 06:07:37;;;;;;;4.03;2.85;;;16.90;99.90;;;;;;4126644;28;23092;-65
2023/08/10 06:09:37;;;;;;;4.03;2.55;;;16.90;99.90;;;;;;4126549;28;20043;-64
2023/08/10 06:11:38;;;;;;;4.05;2.13;;;16.90;99.90;;;;;;4127226;28;20049;-65
2023/08/10 06:13:41;;;;;;;4.78;2.80;;;16.90;99.90;;;;;;4130806;28;20379;-64
2023/08/10 06:15:42;;;;;;;3.40;2.33;;;17.00;99.90;;;;;;4125289;28;20078;-66
2023/08/10 06:17:43;;;;;;;3.55;2.67;;;17.00;99.90;;;;;;4128194;28;20038;-64
2023/08/10 06:19:51;;;;;;;3.28;2.35;;;17.00;99.90;;;;;;4126923;28;20096;-64
2023/08/10 06:21:51;;;;;;;2.92;2.28;;;17.00;99.90;;;;;;4120257;28;20037;-64
2023/08/10 06:23:52;;;;;;;4.28;2.20;;;17.00;99.90;;;;;;4126245;28;20030;-65
2023/08/10 06:25:52;;;;;;;5.53;2.53;;;17.10;99.90;;;;;;4114400;28;20436;-66
2023/08/10 06:27:53;;;;;;;3.85;2.65;;;17.10;99.90;;;;;;4121968;28;20043;-66
2023/08/10 06:29:54;;;;;;;3.22;2.65;;;17.20;99.90;;;;;;4117241;28;20043;-66
2023/08/10 06:31:54;;;;;;;3.17;2.15;;;17.20;99.90;;;;;;4123194;28;20042;-67
2023/08/10 06:33:55;;;;;;;5.97;2.60;;;17.30;99.90;;;;;;4122843;28;20109;-64
2023/08/10 06:35:55;;;;;;;3.78;2.28;;;17.50;99.90;;;;;;4124161;28;20498;-67
2023/08/10 06:37:56;;;;;;;5.82;2.40;;;17.80;99.90;;;;;;4123732;28;20045;-65
2023/08/10 06:39:57;;;;;;;3.08;2.05;;;18.10;99.90;;;;;;4119372;28;20153;-67
2023/08/10 06:41:58;;;;;;;4.60;1.75;;;18.50;99.90;;;;;;4124001;28;20054;-67
2023/08/10 06:43:58;;;;;;;4.60;1.80;;;18.90;99.90;;;;;;4124331;28;20438;-66
2023/08/10 06:45:59;;;;;;;3.00;1.95;;;19.30;99.90;;;;;;4122611;28;20030;-65
2023/08/10 06:48:00;;;;;;;3.20;1.80;;;19.80;99.90;;;;;;4124796;28;20148;-66
2023/08/10 06:50:01;;;;;;;1.98;1.38;;;20.20;99.90;;;;;;4124469;28;20033;-66
2023/08/10 06:52:03;;;;;;;4.72;2.00;;;20.70;99.90;;;;;;4122584;28;20027;-68
2023/08/10 06:54:04;;;;;;;2.70;1.77;;;21.10;99.90;;;;;;4127989;28;20026;-66
2023/08/10 06:56:05;;;;;;;5.35;1.88;;;21.50;99.90;;;;;;4128507;28;20050;-65
2023/08/10 06:58:08;;;;;;;3.60;1.83;;;21.90;99.90;;;;;;4127261;28;20054;-68
2023/08/10 07:00:13;;;;;;;3.25;1.30;;;22.30;99.90;;;;;;4127605;28;20049;-69
2023/08/10 07:02:16;;;;;;;5.95;1.30;;;22.60;99.90;;;;;;4127051;28;20026;-65
2023/08/10 07:04:17;;;;;;;2.95;1.40;;;23.00;99.90;;;;;;4129047;28;20030;-65
2023/08/10 07:06:18;;;;;;;2.30;1.10;;;23.30;99.90;;;;;;4128750;28;20030;-65
2023/08/10 07:08:19;;;;;;;2.78;1.30;;;23.60;99.90;;;;;;4129250;28;20158;-66
2023/08/10 07:10:19;;;;;;;1.70;0.93;;;23.70;99.90;;;;;;4128107;28;20398;-65
2023/08/10 07:12:20;;;;;;;2.95;0.95;;;23.90;99.90;;;;;;4129465;28;20026;-66
2023/08/10 07:14:21;;;;;;;2.80;1.13;;;24.10;99.90;;;;;;4122738;28;20039;-66
2023/08/10 07:16:21;;;;;;;1.35;0.80;;;24.20;99.90;;;;;;4124123;28;20046;-66
2023/08/10 07:18:22;;;;;;;0.90;0.50;;;24.20;99.90;;;;;;4121127;28;20495;-67
2023/08/10 07:20:23;;;;;;;1.52;0.80;;;24.30;99.90;;;;;;4121734;28;20057;-65
2023/08/10 07:22:23;;;;;;;1.35;0.85;;;24.30;99.90;;;;;;4121807;28;20121;-66
2023/08/10 07:24:26;;;;;;;2.70;0.77;;;24.40;99.90;;;;;;4122782;28;20034;-66
2023/08/10 07:26:26;;;;;;;2.00;0.90;;;24.40;99.90;;;;;;4120247;28;20085;-66
2023/08/10 07:28:27;;;;;;;1.13;0.80;;;24.40;99.90;;;;;;4122543;28;20061;-66
2023/08/10 07:30:28;;;;;;;3.50;1.10;;;24.40;99.90;;;;;;4124699;28;20070;-66
2023/08/10 07:32:30;;;;;;;4.13;0.90;;;24.40;99.90;;;;;;4120444;28;20047;-68
2023/08/10 07:34:31;;;;;;;1.98;0.88;;;24.40;99.90;;;;;;4120486;28;20031;-66
2023/08/10 07:36:32;;;;;;;1.75;1.13;;;24.30;99.90;;;;;;4122848;28;20125;-66
2023/08/10 07:38:32;;;;;;;1.92;0.80;;;24.30;99.90;;;;;;4119248;28;20034;-66
2023/08/10 07:40:33;;;;;;;1.90;0.80;;;24.30;99.90;;;;;;4126341;28;20089;-66
2023/08/10 07:42:33;;;;;;;1.83;0.82;;;24.20;99.90;;;;;;4120958;28;20770;-66
2023/08/10 07:44:34;;;;;;;1.60;1.00;;;24.20;99.90;;;;;;4124000;28;20034;-66
2023/08/10 07:46:35;;;;;;;1.92;0.80;;;24.20;99.90;;;;;;4124426;28;20054;-66
2023/08/10 07:48:35;;;;;;;1.85;0.88;;;24.20;99.90;;;;;;4122613;28;20065;-66
2023/08/10 07:50:36;;;;;;;4.10;0.85;;;24.20;99.10;;;;;;4123952;28;20085;-66
2023/08/10 07:52:39;;;;;;;2.55;0.75;;;24.20;99.50;;;;;;4128340;28;20368;-66
2023/08/10 07:54:40;;;;;;;2.75;1.02;;;24.20;99.90;;;;;;4127173;28;20400;-66
2023/08/10 07:56:42;;;;;;;0.90;0.68;;;24.10;98.40;;;;;;4123682;28;20073;-66
2023/08/10 07:58:43;;;;;;;1.48;0.70;;;24.10;95.10;;;;;;4126204;28;20042;-66
2023/08/10 08:00:44;;;;;;;1.08;0.70;;;24.00;98.10;;;;;;4116952;28;20088;-66
2023/08/10 08:02:44;;;;;;;1.35;0.88;;;24.00;96.00;;;;;;4121356;28;20038;-66
2023/08/10 08:04:45;;;;;;;2.05;1.00;;;23.90;94.90;;;;;;4122257;28;20369;-67
2023/08/10 08:06:46;;;;;;;0.93;0.50;;;23.90;95.50;;;;;;4116591;28;20042;-66
2023/08/10 08:08:47;;;;;;;2.42;0.88;;;23.80;96.70;;;;;;4124089;28;20484;-66
2023/08/10 08:10:47;;;;;;;0.90;0.63;;;23.70;97.70;;;;;;4122997;28;20042;-66
2023/08/10 08:12:48;;;;;;;1.25;0.65;;;23.70;97.20;;;;;;4122830;28;20049;-67
2023/08/10 08:14:48;;;;;;;1.75;0.90;;;23.70;97.80;;;;;;4123436;28;20045;-68
2023/08/10 08:16:49;;;;;;;2.72;0.77;;;23.70;97.00;;;;;;4122716;28;20399;-67
2023/08/10 08:18:54;;;;;;;2.20;0.57;;;23.70;94.80;;;;;;4123918;28;20403;-68
2023/08/10 08:20:56;;;;;;;4.43;1.05;;;23.70;94.00;;;;;;4122629;28;20369;-68
2023/08/10 08:22:57;;;;;;;0.68;0.43;;;23.70;93.40;;;;;;4118261;28;20031;-67
2023/08/10 08:24:57;;;;;;;1.60;0.70;;;23.60;93.40;;;;;;4127794;28;20431;-67
2023/08/10 08:26:58;;;;;;;1.60;0.65;;;23.70;95.50;;;;;;4118935;28;20049;-68
2023/08/10 08:28:59;;;;;;;3.40;0.85;;;23.60;94.30;;;;;;4123299;28;20058;-68
2023/08/10 08:31:00;;;;;;;1.50;0.80;;;23.60;97.80;;;;;;4122768;28;20458;-67
2023/08/10 08:33:01;;;;;;;1.33;0.63;;;23.60;96.30;;;;;;4122129;28;20047;-68
2023/08/10 08:35:01;;;;;;;0.60;0.43;;;23.70;98.70;;;;;;4123034;28;20577;-68
2023/08/10 08:37:02;;;;;;;2.58;0.80;;;23.70;96.50;;;;;;4122270;28;20522;-68
2023/08/10 08:39:03;;;;;;;1.00;0.60;;;23.80;96.80;;;;;;4116162;28;20042;-68
2023/08/10 08:41:05;;;;;;;1.52;0.90;;;23.80;94.00;;;;;;4122407;28;20117;-68
2023/08/10 08:43:06;;;;;;;1.95;0.57;;;23.80;94.90;;;;;;4122774;28;20031;-67
2023/08/10 08:45:08;;;;;;;1.42;0.60;;;23.90;95.40;;;;;;4119396;28;20057;-68
2023/08/10 08:47:09;;;;;;;0.60;0.47;;;23.90;94.30;;;;;;4120765;28;20034;-68
2023/08/10 08:49:10;;;;;;;1.42;0.63;;;23.90;94.90;;;;;;4120257;28;20026;-68
2023/08/10 08:51:10;;;;;;;2.78;0.98;;;24.00;96.50;;;;;;4116492;28;20069;-67
2023/08/10 08:53:12;;;;;;;1.98;0.90;;;24.00;95.10;;;;;;4121700;28;20403;-68
2023/08/10 08:55:14;;;;;;;1.27;0.60;;;24.00;94.70;;;;;;4121013;28;20034;-68
2023/08/10 08:57:15;;;;;;;1.65;0.80;;;24.00;94.50;;;;;;4112667;28;20053;-68
2023/08/10 08:59:16;;;;;;;1.55;0.60;;;24.00;96.30;;;;;;4121189;28;20117;-68
2023/08/10 09:01:17;;;;;;;1.15;0.60;;;24.00;95.70;;;;;;4117333;28;20062;-68
2023/08/10 09:03:20;;;;;;;3.53;0.85;;;24.00;94.70;;;;;;4121093;28;20041;-68
2023/08/10 09:05:21;;;;;;;0.95;0.60;;;24.00;97.30;;;;;;4121247;28;20038;-67
2023/08/10 09:07:21;;;;;;;1.55;0.80;;;24.00;94.00;;;;;;4120261;28;20035;-68
2023/08/10 09:09:22;;;;;;;2.65;0.65;;;24.00;93.90;;;;;;4122348;28;20396;-68
2023/08/10 09:11:23;;;;;;;3.70;1.00;;;24.00;97.60;;;;;;4121086;28;20038;-68
2023/08/10 09:13:24;;;;;;;0.90;0.60;;;24.10;98.60;;;;;;4121985;28;20047;-68
2023/08/10 09:15:27;;;;;;;1.85;0.70;;;24.10;96.60;;;;;;4118435;28;20045;-68
2023/08/10 09:17:28;;;;;;;1.85;0.80;;;24.20;96.10;;;;;;4122367;28;20104;-68
2023/08/10 09:19:28;;;;;;;1.50;0.90;;;24.20;96.50;;;;;;4120582;28;20089;-68
2023/08/10 09:21:32;;;;;;;2.00;0.85;;;24.30;95.90;;;;;;4121508;28;20583;-68
2023/08/10 09:23:36;;;;;;;1.13;0.70;;;24.30;96.30;;;;;;4121224;28;20511;-71
2023/08/10 09:25:39;;;;;;;1.58;0.60;;;24.30;96.00;;;;;;4119498;28;20105;-69
2023/08/10 09:27:39;;;;;;;1.88;0.80;;;24.30;95.90;;;;;;4120571;28;20499;-72
2023/08/10 09:29:41;;;;;;;0.77;0.50;;;24.30;95.10;;;;;;4122135;28;20314;-71
2023/08/10 09:31:47;;;;;;;2.00;0.90;;;24.30;95.80;;;;;;4114451;28;20040;-71
2023/08/10 09:33:56;;;;;;;1.63;0.63;;;24.30;95.10;;;;;;4127356;28;20277;-73
2023/08/10 09:36:00;;;;;;;2.25;0.80;;;24.30;95.60;;;;;;4137383;28;20117;-72
2023/08/10 09:38:02;;;;;;;1.15;0.70;;;24.30;94.10;;;;;;4122943;28;20032;-68
2023/08/10 09:40:07;;;;;;;2.95;0.70;;;24.30;97.60;;;;;;4125004;28;20559;-72
2023/08/10 09:42:08;;;;;;;1.00;0.60;;;24.40;97.70;;;;;;4123416;28;20037;-71
2023/08/10 09:44:09;;;;;;;1.88;0.75;;;24.40;96.90;;;;;;4118316;28;20038;-71
2023/08/10 09:46:11;;;;;;;1.08;0.65;;;24.40;95.30;;;;;;4128331;28;20100;-70
2023/08/10 09:48:12;;;;;;;5.50;1.15;;;24.30;94.70;;;;;;4117286;28;20062;-72
2023/08/10 09:50:15;;;;;;;2.22;1.17;;;24.30;95.50;;;;;;4122941;28;20065;-69
2023/08/10 09:52:15;;;;;;;;;;;24.30;95.70;;;;;;4125753;28;20049;-71
2023/08/10 09:54:16;;;;;;;1.20;0.70;;;24.30;95.90;;;;;;4122650;28;19910;-72
2023/08/10 09:56:17;;;;;;;1.02;0.80;;;24.30;95.90;;;;;;4120317;28;20046;-72
2023/08/10 09:58:19;;;;;;;1.88;0.50;;;24.30;95.00;;;;;;4123941;28;20027;-72
2023/08/10 10:00:21;;;;;;;1.15;0.65;;;24.40;95.00;;;;;;4108979;28;20117;-72
2023/08/10 10:02:23;;;;;;;0.98;0.70;;;24.30;96.00;;;;;;4125027;28;20034;-72
2023/08/10 10:04:24;;;;;;;1.58;0.73;;;24.40;97.00;;;;;;4123788;28;20118;-72
2023/08/10 10:06:26;;;;;;;4.60;1.08;;;24.50;95.90;;;;;;4123631;28;20077;-71
2023/08/10 10:08:28;;;;;;;3.38;1.00;;;24.50;98.70;;;;;;4124919;28;20530;-72
2023/08/10 10:10:30;;;;;;;1.65;0.80;;;24.50;97.20;;;;;;4122469;28;20042;-72
2023/08/10 10:12:35;;;;;;;;;;;24.50;95.10;;;;;;4125235;28;20039;-72
2023/08/10 10:14:43;;;;;;;1.70;0.68;;;24.50;95.80;;;;;;4125031;28;19972;-71
2023/08/10 10:16:43;;;;;;;2.00;0.80;;;24.60;96.90;;;;;;4123175;28;20034;-72
2023/08/10 10:18:44;;;;;;;1.55;0.85;;;24.60;97.20;;;;;;4125104;28;20030;-72
2023/08/10 10:20:48;;;;;;;2.47;1.08;;;24.60;96.70;;;;;;4127949;28;20030;-72
2023/08/10 10:22:49;;;;;;;2.15;0.82;;;24.60;97.90;;;;;;4131932;28;20034;-72
2023/08/10 10:24:51;;;;;;;3.10;1.00;;;24.60;98.70;;;;;;4126704;28;20467;-72
2023/08/10 10:27:03;;;;;;;0.98;0.70;;;24.70;98.10;;;;;;4122287;28;20034;-69
2023/08/10 10:29:15;;;;;;;2.70;1.00;;;24.70;96.80;;;;;;4109274;28;20080;-72
2023/08/10 10:31:17;;;;;;;1.83;0.80;;;24.60;94.90;;;;;;4125134;28;20532;-73
2023/08/10 10:33:17;;;;;;;1.83;0.90;;;24.60;94.40;;;;;;4142413;28;20034;-73